Snav Lazio — IBUH — position and weather

sailwx.info

Track history (hours):
 
Tides and Currents Weather Stations Pressure Air Temp Water Temp Dewpoint Dewpoint Depression Visibility Wind Speed Wind Dir Waves Ship Positions

Snav Lazio

Last reported at 2016-May-27 19:34 UTC. Time now 2016-May-27 20:08 UTC.
Position N 38°17' E 013°28'.

Length 162 m; draft 6 m.

Type: Passenger vessel. MMSI: 247163100.

Date/timePositionNaut miles runAvg speedWind from/ knotsBaromVisibWave heightAir tempDewpointWater temp
2016-May-27 19:34N 38°17' E 013°28'10 9.9
2016-May-27 18:31N 38°08' E 013°22'0 0.0
2016-May-27 17:31N 38°08' E 013°22'0 0.0
2016-May-27 16:31N 38°08' E 013°22'0 0.0
2016-May-27 15:31N 38°08' E 013°22'0 0.0
2016-May-27 14:31N 38°08' E 013°22'0 0.0
2016-May-27 13:31N 38°08' E 013°22'0 0.0
2016-May-27 12:32N 38°08' E 013°22'0 0.0
2016-May-27 11:32N 38°08' E 013°22'0 0.0
2016-May-27 10:32N 38°08' E 013°22'0 0.0
2016-May-27 09:32N 38°08' E 013°22'0 0.0
2016-May-27 08:32N 38°08' E 013°22'0 0.0
2016-May-27 07:32N 38°08' E 013°22'0 0.0
2016-May-27 06:32N 38°08' E 013°22'0 0.0
2016-May-27 05:32N 38°08' E 013°22'0 0.0
2016-May-27 04:34N 38°08' E 013°22'1111.2
2016-May-27 03:34N 38°19' E 013°27'1716.8
2016-May-27 02:34N 38°35' E 013°32'1716.9
2016-May-27 01:34N 38°51' E 013°37'1716.8
2016-May-27 00:34N 39°08' E 013°41'1717.0
2016-May-26 23:34N 39°25' E 013°44'1717.2
2016-May-26 22:34N 39°41' E 013°50'1717.1
2016-May-26 21:34N 39°58' E 013°56'1717.3
2016-May-26 20:34N 40°14' E 014°02'1717.2
2016-May-26 19:34N 40°31' E 014°07'1717.2
2016-May-26 18:34N 40°47' E 014°16'3 3.2
2016-May-26 17:32N 40°50' E 014°16'0 0.0
2016-May-26 16:32N 40°50' E 014°16'0 0.0
2016-May-26 15:32N 40°50' E 014°16'0 0.0
2016-May-26 14:32N 40°50' E 014°16'0 0.0
2016-May-26 13:32N 40°50' E 014°16'0 0.0
2016-May-26 12:32N 40°50' E 014°16'0 0.0
2016-May-26 10:05N 40°50' E 014°16'0 0.0
2016-May-26 09:32N 40°50' E 014°16'0 0.0
2016-May-26 08:32N 40°50' E 014°16'0 0.0
2016-May-26 04:32N 40°50' E 014°16'5 5.3
2016-May-26 03:34N 40°45' E 014°15'1817.6
2016-May-26 02:33N 40°29' E 014°06'3817.6
2016-May-26 00:25N 39°52' E 013°56'1517.6
2016-May-25 23:33N 39°37' E 013°51'2217.6
2016-May-25 22:17N 39°15' E 013°45'1317.9
2016-May-25 21:33N 39°02' E 013°44'1817.8
2016-May-25 20:33N 38°46' E 013°36'1918.6
2016-May-25 19:34N 38°28' E 013°30'1918.6
2016-May-25 18:34N 38°10' E 013°26'3 3.2
2016-May-25 17:31N 38°08' E 013°22'0 0.0
2016-May-25 16:31N 38°08' E 013°22'0 0.0
2016-May-25 15:31N 38°08' E 013°22'0 0.0
2016-May-25 14:31N 38°08' E 013°22'0 0.0
2016-May-25 13:31N 38°08' E 013°22'0 0.0
2016-May-25 12:31N 38°08' E 013°22'0 0.0
2016-May-25 11:31N 38°08' E 013°22'0 0.0
2016-May-25 10:31N 38°08' E 013°22'0 0.0
2016-May-25 09:31N 38°08' E 013°22'0 0.0
2016-May-25 08:31N 38°08' E 013°22'0 0.0
2016-May-25 07:31N 38°08' E 013°22'0 0.0
2016-May-25 06:31N 38°08' E 013°22'0 0.0
2016-May-25 05:31N 38°08' E 013°22'1 0.9
2016-May-25 04:33N 38°07' E 013°23'1514.8
2016-May-25 03:33N 38°21' E 013°28'1717.3
2016-May-25 02:33N 38°38' E 013°34'1717.1
2016-May-25 01:32N 38°55' E 013°38'1717.3
2016-May-25 00:33N 39°12' E 013°43'3617.3
2016-May-24 22:28N 39°47' E 013°54'3317.1
2016-May-24 20:33N 40°19' E 014°03'1717.3
2016-May-24 19:33N 40°36' E 014°09'1615.4
2016-May-24 18:33N 40°50' E 014°16'0 0.0
2016-May-24 04:29N 40°50' E 014°16'8 9.1
2016-May-24 03:33N 40°42' E 014°13'1717.1
2016-May-24 02:33N 40°26' E 014°05'10417.3
2016-May-23 20:33N 38°45' E 013°35'1818.2
2016-May-23 19:33N 38°27' E 013°30'1817.9
2016-May-23 18:33N 38°10' E 013°26'4 3.6
2016-May-23 17:31N 38°08' E 013°22'0 0.0
2016-May-23 16:31N 38°08' E 013°22'0 0.0
2016-May-23 15:31N 38°08' E 013°22'0 0.0
2016-May-23 14:31N 38°08' E 013°22'0 0.0
2016-May-23 13:31N 38°08' E 013°22'0 0.0
2016-May-23 12:31N 38°08' E 013°22'0 0.0
2016-May-23 11:31N 38°08' E 013°22'0 0.0
2016-May-23 10:31N 38°08' E 013°22'0 0.0
2016-May-23 09:31N 38°08' E 013°22'0 0.0
2016-May-23 08:31N 38°08' E 013°22'0 0.0
2016-May-23 07:31N 38°08' E 013°22'0 0.0
2016-May-23 06:31N 38°08' E 013°22'0 0.0
2016-May-23 05:31N 38°08' E 013°22'0 0.0
2016-May-23 04:31N 38°08' E 013°22'7 7.2
2016-May-23 03:34N 38°14' E 013°26'1818.1
2016-May-23 02:34N 38°32' E 013°31'1817.7
2016-May-23 01:34N 38°49' E 013°37'1817.9
2016-May-23 00:34N 39°07' E 013°41'1818.1
2016-May-22 23:33N 39°24' E 013°45'1818.2
2016-May-22 22:33N 39°43' E 013°48'1818.2
2016-May-22 21:33N 39°60' E 013°56'1818.3
2016-May-22 20:33N 40°17' E 014°02'1716.6
2016-May-22 19:34N 40°33' E 014°07'1716.5
2016-May-22 18:34N 40°48' E 014°16'2 2.1
2016-May-22 17:31N 40°50' E 014°16'0 0.0
2016-May-22 16:22N 40°50' E 014°16'0 0.0
2016-May-22 15:28N 40°50' E 014°16'0 0.0
2016-May-22 14:31N 40°50' E 014°16'0 0.0
2016-May-22 13:31N 40°50' E 014°16'0 0.0
2016-May-22 12:31N 40°50' E 014°16'0 0.0
2016-May-22 11:31N 40°50' E 014°16'0 0.0
2016-May-22 10:31N 40°50' E 014°16'0 0.0
2016-May-22 09:31N 40°50' E 014°16'0 0.0
2016-May-22 08:31N 40°50' E 014°16'0 0.0
2016-May-22 04:14N 40°50' E 014°16'5 7.6
2016-May-22 03:34N 40°45' E 014°15'1817.8
2016-May-22 02:34N 40°29' E 014°06'1818.0
2016-May-22 01:34N 40°11' E 014°01'1818.1
2016-May-22 00:34N 39°54' E 013°55'1818.0
2016-May-21 23:34N 39°36' E 013°51'1817.8
2016-May-21 22:33N 39°19' E 013°46'1917.8
2016-May-21 21:31N 39°00' E 013°41'1717.9
2016-May-21 20:34N 38°44' E 013°36'1817.9
2016-May-21 19:33N 38°26' E 013°31'1817.7
2016-May-21 18:34N 38°09' E 013°26'3 3.2
2016-May-21 17:33N 38°08' E 013°22'0 0.0
2016-May-21 16:33N 38°08' E 013°22'0 0.0
2016-May-21 15:33N 38°08' E 013°22'0 0.0
2016-May-21 14:33N 38°08' E 013°22'0 0.0
2016-May-21 13:33N 38°08' E 013°22'0 0.0
2016-May-21 12:33N 38°08' E 013°22'0 0.0
2016-May-21 11:33N 38°08' E 013°22'0 0.0
2016-May-21 10:33N 38°08' E 013°22'0 0.0
2016-May-21 09:33N 38°08' E 013°22'0 0.0
2016-May-21 08:33N 38°08' E 013°22'0 0.0
2016-May-21 07:33N 38°08' E 013°22'0 0.0
2016-May-21 06:27N 38°08' E 013°22'0 0.0
2016-May-21 05:27N 38°08' E 013°22'0 0.0
2016-May-21 04:33N 38°08' E 013°22'1111.0
2016-May-21 03:33N 38°18' E 013°27'1917.3
2016-May-21 02:28N 38°36' E 013°33'10317.4
2016-May-20 20:33N 40°17' E 014°02'1817.6
2016-May-20 19:33N 40°34' E 014°08'1717.0
2016-May-20 18:33N 40°49' E 014°17'1 0.1
2016-May-20 06:33N 40°50' E 014°16'12712.8
2016-May-19 20:33N 38°47' E 013°36'1818.2
2016-May-19 19:33N 38°29' E 013°31'1817.9
2016-May-19 18:34N 38°11' E 013°26'5 4.7
2016-May-19 17:31N 38°08' E 013°22'0 0.0
2016-May-19 16:25N 38°08' E 013°22'0 0.0
2016-May-19 15:28N 38°08' E 013°22'0 0.0
2016-May-19 14:13N 38°08' E 013°22'0 0.0
2016-May-19 13:28N 38°08' E 013°22'0 0.0
2016-May-19 12:28N 38°08' E 013°22'0 0.0
2016-May-19 11:28N 38°08' E 013°22'0 0.0
2016-May-19 10:28N 38°08' E 013°22'0 0.0
2016-May-19 09:31N 38°08' E 013°22'0 0.0
2016-May-19 08:16N 38°08' E 013°22'0 0.0
2016-May-19 07:31N 38°08' E 013°22'0 0.0
2016-May-19 06:31N 38°08' E 013°22'0 0.0
2016-May-19 05:34N 38°08' E 013°22'0 0.0
2016-May-19 04:33N 38°08' E 013°22'9 9.3
2016-May-19 03:33N 38°17' E 013°27'1818.1
2016-May-19 02:33N 38°34' E 013°32'1817.8
2016-May-19 01:34N 38°51' E 013°37'4218.0
2016-May-18 23:13N 39°32' E 013°49'3018.2
2016-May-18 21:34N 40°02' E 013°59'50 3.0
2016-May-18 04:32N 40°50' E 014°16'7 6.9
2016-May-18 03:33N 40°44' E 014°14'1817.7
2016-May-18 02:33N 40°27' E 014°05'11217.5
2016-May-17 20:09N 38°38' E 013°33'  
Track history (hours):
 
Tides and Currents Weather Stations Pressure Air Temp Water Temp Dewpoint Dewpoint Depression Visibility Wind Speed Wind Dir Waves Ship Positions

Snav Lazio

Last reported at 2016-May-27 19:34 UTC. Time now 2016-May-27 20:08 UTC.
Position N 38°17' E 013°28'.

Length 162 m; draft 6 m.

Type: Passenger vessel. MMSI: 247163100.

Date/timePositionNaut miles runAvg speedWind from/ knotsBaromVisibWave heightAir tempDewpointWater temp
2016-May-27 19:34N 38°17' E 013°28'10 9.9
2016-May-27 18:31N 38°08' E 013°22'0 0.0
2016-May-27 17:31N 38°08' E 013°22'0 0.0
2016-May-27 16:31N 38°08' E 013°22'0 0.0
2016-May-27 15:31N 38°08' E 013°22'0 0.0
2016-May-27 14:31N 38°08' E 013°22'0 0.0
2016-May-27 13:31N 38°08' E 013°22'0 0.0
2016-May-27 12:32N 38°08' E 013°22'0 0.0
2016-May-27 11:32N 38°08' E 013°22'0 0.0
2016-May-27 10:32N 38°08' E 013°22'0 0.0
2016-May-27 09:32N 38°08' E 013°22'0 0.0
2016-May-27 08:32N 38°08' E 013°22'0 0.0
2016-May-27 07:32N 38°08' E 013°22'0 0.0
2016-May-27 06:32N 38°08' E 013°22'0 0.0
2016-May-27 05:32N 38°08' E 013°22'0 0.0
2016-May-27 04:34N 38°08' E 013°22'1111.2
2016-May-27 03:34N 38°19' E 013°27'1716.8
2016-May-27 02:34N 38°35' E 013°32'1716.9
2016-May-27 01:34N 38°51' E 013°37'1716.8
2016-May-27 00:34N 39°08' E 013°41'1717.0
2016-May-26 23:34N 39°25' E 013°44'1717.2
2016-May-26 22:34N 39°41' E 013°50'1717.1
2016-May-26 21:34N 39°58' E 013°56'1717.3
2016-May-26 20:34N 40°14' E 014°02'1717.2
2016-May-26 19:34N 40°31' E 014°07'1717.2
2016-May-26 18:34N 40°47' E 014°16'3 3.2
2016-May-26 17:32N 40°50' E 014°16'0 0.0
2016-May-26 16:32N 40°50' E 014°16'0 0.0
2016-May-26 15:32N 40°50' E 014°16'0 0.0
2016-May-26 14:32N 40°50' E 014°16'0 0.0
2016-May-26 13:32N 40°50' E 014°16'0 0.0
2016-May-26 12:32N 40°50' E 014°16'0 0.0
2016-May-26 10:05N 40°50' E 014°16'0 0.0
2016-May-26 09:32N 40°50' E 014°16'0 0.0
2016-May-26 08:32N 40°50' E 014°16'0 0.0
2016-May-26 04:32N 40°50' E 014°16'5 5.3
2016-May-26 03:34N 40°45' E 014°15'1817.6
2016-May-26 02:33N 40°29' E 014°06'3817.6
2016-May-26 00:25N 39°52' E 013°56'1517.6
2016-May-25 23:33N 39°37' E 013°51'2217.6
2016-May-25 22:17N 39°15' E 013°45'1317.9
2016-May-25 21:33N 39°02' E 013°44'1817.8
2016-May-25 20:33N 38°46' E 013°36'1918.6
2016-May-25 19:34N 38°28' E 013°30'1918.6
2016-May-25 18:34N 38°10' E 013°26'3 3.2
2016-May-25 17:31N 38°08' E 013°22'0 0.0
2016-May-25 16:31N 38°08' E 013°22'0 0.0
2016-May-25 15:31N 38°08' E 013°22'0 0.0
2016-May-25 14:31N 38°08' E 013°22'0 0.0
2016-May-25 13:31N 38°08' E 013°22'0 0.0
2016-May-25 12:31N 38°08' E 013°22'0 0.0
2016-May-25 11:31N 38°08' E 013°22'0 0.0
2016-May-25 10:31N 38°08' E 013°22'0 0.0
2016-May-25 09:31N 38°08' E 013°22'0 0.0
2016-May-25 08:31N 38°08' E 013°22'0 0.0
2016-May-25 07:31N 38°08' E 013°22'0 0.0
2016-May-25 06:31N 38°08' E 013°22'0 0.0
2016-May-25 05:31N 38°08' E 013°22'1 0.9
2016-May-25 04:33N 38°07' E 013°23'1514.8
2016-May-25 03:33N 38°21' E 013°28'1717.3
2016-May-25 02:33N 38°38' E 013°34'1717.1
2016-May-25 01:32N 38°55' E 013°38'1717.3
2016-May-25 00:33N 39°12' E 013°43'3617.3
2016-May-24 22:28N 39°47' E 013°54'3317.1
2016-May-24 20:33N 40°19' E 014°03'1717.3
2016-May-24 19:33N 40°36' E 014°09'1615.4
2016-May-24 18:33N 40°50' E 014°16'0 0.0
2016-May-24 04:29N 40°50' E 014°16'8 9.1
2016-May-24 03:33N 40°42' E 014°13'1717.1
2016-May-24 02:33N 40°26' E 014°05'10417.3
2016-May-23 20:33N 38°45' E 013°35'1818.2
2016-May-23 19:33N 38°27' E 013°30'1817.9
2016-May-23 18:33N 38°10' E 013°26'4 3.6
2016-May-23 17:31N 38°08' E 013°22'0 0.0
2016-May-23 16:31N 38°08' E 013°22'0 0.0
2016-May-23 15:31N 38°08' E 013°22'0 0.0
2016-May-23 14:31N 38°08' E 013°22'0 0.0
2016-May-23 13:31N 38°08' E 013°22'0 0.0
2016-May-23 12:31N 38°08' E 013°22'0 0.0
2016-May-23 11:31N 38°08' E 013°22'0 0.0
2016-May-23 10:31N 38°08' E 013°22'0 0.0
2016-May-23 09:31N 38°08' E 013°22'0 0.0
2016-May-23 08:31N 38°08' E 013°22'0 0.0
2016-May-23 07:31N 38°08' E 013°22'0 0.0
2016-May-23 06:31N 38°08' E 013°22'0 0.0
2016-May-23 05:31N 38°08' E 013°22'0 0.0
2016-May-23 04:31N 38°08' E 013°22'7 7.2
2016-May-23 03:34N 38°14' E 013°26'1818.1
2016-May-23 02:34N 38°32' E 013°31'1817.7
2016-May-23 01:34N 38°49' E 013°37'1817.9
2016-May-23 00:34N 39°07' E 013°41'1818.1
2016-May-22 23:33N 39°24' E 013°45'1818.2
2016-May-22 22:33N 39°43' E 013°48'1818.2
2016-May-22 21:33N 39°60' E 013°56'1818.3
2016-May-22 20:33N 40°17' E 014°02'1716.6
2016-May-22 19:34N 40°33' E 014°07'1716.5
2016-May-22 18:34N 40°48' E 014°16'2 2.1
2016-May-22 17:31N 40°50' E 014°16'0 0.0
2016-May-22 16:22N 40°50' E 014°16'0 0.0
2016-May-22 15:28N 40°50' E 014°16'0 0.0
2016-May-22 14:31N 40°50' E 014°16'0 0.0
2016-May-22 13:31N 40°50' E 014°16'0 0.0
2016-May-22 12:31N 40°50' E 014°16'0 0.0
2016-May-22 11:31N 40°50' E 014°16'0 0.0
2016-May-22 10:31N 40°50' E 014°16'0 0.0
2016-May-22 09:31N 40°50' E 014°16'0 0.0
2016-May-22 08:31N 40°50' E 014°16'0 0.0
2016-May-22 04:14N 40°50' E 014°16'5 7.6
2016-May-22 03:34N 40°45' E 014°15'1817.8
2016-May-22 02:34N 40°29' E 014°06'1818.0
2016-May-22 01:34N 40°11' E 014°01'1818.1
2016-May-22 00:34N 39°54' E 013°55'1818.0
2016-May-21 23:34N 39°36' E 013°51'1817.8
2016-May-21 22:33N 39°19' E 013°46'1917.8
2016-May-21 21:31N 39°00' E 013°41'1717.9
2016-May-21 20:34N 38°44' E 013°36'1817.9
2016-May-21 19:33N 38°26' E 013°31'1817.7
2016-May-21 18:34N 38°09' E 013°26'3 3.2
2016-May-21 17:33N 38°08' E 013°22'0 0.0
2016-May-21 16:33N 38°08' E 013°22'0 0.0
2016-May-21 15:33N 38°08' E 013°22'0 0.0
2016-May-21 14:33N 38°08' E 013°22'0 0.0
2016-May-21 13:33N 38°08' E 013°22'0 0.0
2016-May-21 12:33N 38°08' E 013°22'0 0.0
2016-May-21 11:33N 38°08' E 013°22'0 0.0
2016-May-21 10:33N 38°08' E 013°22'0 0.0
2016-May-21 09:33N 38°08' E 013°22'0 0.0
2016-May-21 08:33N 38°08' E 013°22'0 0.0
2016-May-21 07:33N 38°08' E 013°22'0 0.0
2016-May-21 06:27N 38°08' E 013°22'0 0.0
2016-May-21 05:27N 38°08' E 013°22'0 0.0
2016-May-21 04:33N 38°08' E 013°22'1111.0
2016-May-21 03:33N 38°18' E 013°27'1917.3
2016-May-21 02:28N 38°36' E 013°33'10317.4
2016-May-20 20:33N 40°17' E 014°02'1817.6
2016-May-20 19:33N 40°34' E 014°08'1717.0
2016-May-20 18:33N 40°49' E 014°17'1 0.1
2016-May-20 06:33N 40°50' E 014°16'12712.8
2016-May-19 20:33N 38°47' E 013°36'1818.2
2016-May-19 19:33N 38°29' E 013°31'1817.9
2016-May-19 18:34N 38°11' E 013°26'5 4.7
2016-May-19 17:31N 38°08' E 013°22'0 0.0
2016-May-19 16:25N 38°08' E 013°22'0 0.0
2016-May-19 15:28N 38°08' E 013°22'0 0.0
2016-May-19 14:13N 38°08' E 013°22'0 0.0
2016-May-19 13:28N 38°08' E 013°22'0 0.0
2016-May-19 12:28N 38°08' E 013°22'0 0.0
2016-May-19 11:28N 38°08' E 013°22'0 0.0
2016-May-19 10:28N 38°08' E 013°22'0 0.0
2016-May-19 09:31N 38°08' E 013°22'0 0.0
2016-May-19 08:16N 38°08' E 013°22'0 0.0
2016-May-19 07:31N 38°08' E 013°22'0 0.0
2016-May-19 06:31N 38°08' E 013°22'0 0.0
2016-May-19 05:34N 38°08' E 013°22'0 0.0
2016-May-19 04:33N 38°08' E 013°22'9 9.3
2016-May-19 03:33N 38°17' E 013°27'1818.1
2016-May-19 02:33N 38°34' E 013°32'1817.8
2016-May-19 01:34N 38°51' E 013°37'4218.0
2016-May-18 23:13N 39°32' E 013°49'3018.2
2016-May-18 21:34N 40°02' E 013°59'50 3.0
2016-May-18 04:32N 40°50' E 014°16'7 6.9
2016-May-18 03:33N 40°44' E 014°14'1817.7
2016-May-18 02:33N 40°27' E 014°05'11217.5
2016-May-17 20:09N 38°38' E 013°33'  

Dump ship's entire track history